Hauptseite
METAR-TAF:

METAR-TAF

Flughäfen :

Flughafen Groningen

Groningen, Niederlande

Breite: 53-08N, Länge: 006-35E, Höhe: 4 m

Beobachtung

Neuester Wetterbericht von vor 33 Minuten, um 19:25 UTC
Wind 3 kt aus Ost/Nordost, variierte zwischen Nordost und Süd
Temperatur 20°C
Luftfeuchtigkeit 73%
Luftdruck 1015 hPa
Sichtweite 10 km oder mehr

METAR: EHGG 051925Z AUTO 07003KT 050V170 9999 NCD 20/15 Q1015 NOSIG

Zeit: 21:58 (19:58 UTC)

Prognose

Neuester Wetterbericht von vor 2 Stunden und 45 Minuten, um 17:13 UTC
Gültige Prognose vom 05 um 18 UTC bis 06 um 24 UTC
Wind 5 kt aus Süd/Südost
Sichtweite 10 km oder mehr
keine Wolken unter 1500 m und keine Kumulonimbus oder Gewitterwolken

TAF: EHGG 051713Z 0518/0624 15005KT CAVOK

Wetterbeobachtungen und Prognosen von mehr als 4000 Flughäfen (METAR und TAF Bericht).

Die verfügbaren Stationen werden durch gelbe und rote Markierungen auf der Karte dargestellt.

Führen Sie die Maus auf sie, um den Namen der Station zu sehen.

Darauf klicken, um die Beobachtung von Wetterbeobachtungen und Prognosen zu sehen.

Um die Karte zu ändern : klicken Sie auf den grünen Tasten mit einem schwarzen Kreuz Zum Vergrößern, auf den grünen Button mit einem Gedankenstrich zu verkleinern, oder auf die grünen Pfeile für benachbarte Karten.


METAR-TAF: